sensor_id;sensor_type;location;lat;lon;timestamp;temperature;humidity
67804;SHT31;54603;45.638;11.714;2024-02-14T00:01:54;16.98;67.16
67804;SHT31;54603;45.638;11.714;2024-02-14T00:04:20;16.95;67.11
67804;SHT31;54603;45.638;11.714;2024-02-14T00:06:46;16.96;67.21
67804;SHT31;54603;45.638;11.714;2024-02-14T00:09:13;16.95;67.30
67804;SHT31;54603;45.638;11.714;2024-02-14T00:11:38;16.93;67.33
67804;SHT31;54603;45.638;11.714;2024-02-14T00:14:04;16.94;67.37
67804;SHT31;54603;45.638;11.714;2024-02-14T00:16:32;16.93;67.39
67804;SHT31;54603;45.638;11.714;2024-02-14T00:18:58;16.92;67.40
67804;SHT31;54603;45.638;11.714;2024-02-14T00:21:23;16.92;67.41
67804;SHT31;54603;45.638;11.714;2024-02-14T00:23:49;16.91;67.15
67804;SHT31;54603;45.638;11.714;2024-02-14T00:26:16;16.90;66.98
67804;SHT31;54603;45.638;11.714;2024-02-14T00:28:42;16.88;66.91
67804;SHT31;54603;45.638;11.714;2024-02-14T00:31:07;16.88;66.76
67804;SHT31;54603;45.638;11.714;2024-02-14T00:33:33;16.87;66.56
67804;SHT31;54603;45.638;11.714;2024-02-14T00:35:59;16.86;66.57
67804;SHT31;54603;45.638;11.714;2024-02-14T00:38:25;16.85;66.57
67804;SHT31;54603;45.638;11.714;2024-02-14T00:40:50;16.84;66.71
67804;SHT31;54603;45.638;11.714;2024-02-14T00:43:16;16.83;66.74
67804;SHT31;54603;45.638;11.714;2024-02-14T00:45:42;16.82;66.69
67804;SHT31;54603;45.638;11.714;2024-02-14T00:48:08;16.82;66.62
67804;SHT31;54603;45.638;11.714;2024-02-14T00:50:33;16.81;66.54
67804;SHT31;54603;45.638;11.714;2024-02-14T00:52:59;16.80;66.33
67804;SHT31;54603;45.638;11.714;2024-02-14T00:55:25;16.79;66.17
67804;SHT31;54603;45.638;11.714;2024-02-14T00:57:51;16.78;65.91
67804;SHT31;54603;45.638;11.714;2024-02-14T01:00:17;16.77;66.05
67804;SHT31;54603;45.638;11.714;2024-02-14T01:02:43;16.77;66.20
67804;SHT31;54603;45.638;11.714;2024-02-14T01:05:09;16.76;66.10
67804;SHT31;54603;45.638;11.714;2024-02-14T01:07:35;16.75;65.77
67804;SHT31;54603;45.638;11.714;2024-02-14T01:10:01;16.75;65.92
67804;SHT31;54603;45.638;11.714;2024-02-14T01:12:28;16.73;65.84
67804;SHT31;54603;45.638;11.714;2024-02-14T01:14:57;16.74;65.84
67804;SHT31;54603;45.638;11.714;2024-02-14T01:17:23;16.71;66.00
67804;SHT31;54603;45.638;11.714;2024-02-14T01:19:50;16.72;65.83
67804;SHT31;54603;45.638;11.714;2024-02-14T01:22:16;16.70;65.81
67804;SHT31;54603;45.638;11.714;2024-02-14T01:24:42;16.69;66.11
67804;SHT31;54603;45.638;11.714;2024-02-14T01:27:08;16.69;66.33
67804;SHT31;54603;45.638;11.714;2024-02-14T01:29:34;16.68;66.39
67804;SHT31;54603;45.638;11.714;2024-02-14T01:32:00;16.67;66.43
67804;SHT31;54603;45.638;11.714;2024-02-14T01:34:26;16.66;66.49
67804;SHT31;54603;45.638;11.714;2024-02-14T01:36:53;16.66;66.44
67804;SHT31;54603;45.638;11.714;2024-02-14T01:39:20;16.66;66.46
67804;SHT31;54603;45.638;11.714;2024-02-14T01:41:47;16.65;66.76
67804;SHT31;54603;45.638;11.714;2024-02-14T01:44:14;16.64;66.89
67804;SHT31;54603;45.638;11.714;2024-02-14T01:46:42;16.64;66.98
67804;SHT31;54603;45.638;11.714;2024-02-14T01:49:09;16.63;67.07
67804;SHT31;54603;45.638;11.714;2024-02-14T01:51:37;16.63;66.90
67804;SHT31;54603;45.638;11.714;2024-02-14T01:54:06;16.62;66.76
67804;SHT31;54603;45.638;11.714;2024-02-14T01:56:32;16.62;66.62
67804;SHT31;54603;45.638;11.714;2024-02-14T01:58:59;16.60;66.53
67804;SHT31;54603;45.638;11.714;2024-02-14T02:01:26;16.60;66.46
67804;SHT31;54603;45.638;11.714;2024-02-14T02:03:52;16.58;66.47
67804;SHT31;54603;45.638;11.714;2024-02-14T02:06:19;16.58;66.53
67804;SHT31;54603;45.638;11.714;2024-02-14T02:08:45;16.57;66.65
67804;SHT31;54603;45.638;11.714;2024-02-14T02:11:13;16.57;66.57
67804;SHT31;54603;45.638;11.714;2024-02-14T02:13:39;16.56;66.45
67804;SHT31;54603;45.638;11.714;2024-02-14T02:16:06;16.55;66.38
67804;SHT31;54603;45.638;11.714;2024-02-14T02:18:33;16.54;66.34
67804;SHT31;54603;45.638;11.714;2024-02-14T02:20:58;16.54;66.31
67804;SHT31;54603;45.638;11.714;2024-02-14T02:23:24;16.54;66.38
67804;SHT31;54603;45.638;11.714;2024-02-14T02:25:50;16.53;66.42
67804;SHT31;54603;45.638;11.714;2024-02-14T02:28:16;16.53;66.49
67804;SHT31;54603;45.638;11.714;2024-02-14T02:30:42;16.52;66.73
67804;SHT31;54603;45.638;11.714;2024-02-14T02:33:10;16.51;66.67
67804;SHT31;54603;45.638;11.714;2024-02-14T02:35:37;16.50;66.50
67804;SHT31;54603;45.638;11.714;2024-02-14T02:38:07;16.49;66.55
67804;SHT31;54603;45.638;11.714;2024-02-14T02:40:33;16.48;66.42
67804;SHT31;54603;45.638;11.714;2024-02-14T02:42:58;16.47;66.32
67804;SHT31;54603;45.638;11.714;2024-02-14T02:45:25;16.47;66.25
67804;SHT31;54603;45.638;11.714;2024-02-14T02:47:51;16.45;66.24
67804;SHT31;54603;45.638;11.714;2024-02-14T02:50:17;16.46;66.17
67804;SHT31;54603;45.638;11.714;2024-02-14T02:52:44;16.44;66.20
67804;SHT31;54603;45.638;11.714;2024-02-14T02:55:10;16.43;66.44
67804;SHT31;54603;45.638;11.714;2024-02-14T02:57:36;16.43;66.58
67804;SHT31;54603;45.638;11.714;2024-02-14T03:00:05;16.43;66.74
67804;SHT31;54603;45.638;11.714;2024-02-14T03:02:33;16.42;66.85
67804;SHT31;54603;45.638;11.714;2024-02-14T03:05:03;16.42;66.82
67804;SHT31;54603;45.638;11.714;2024-02-14T03:07:31;16.40;66.55
67804;SHT31;54603;45.638;11.714;2024-02-14T03:09:57;16.40;66.29
67804;SHT31;54603;45.638;11.714;2024-02-14T03:12:23;16.38;66.38
67804;SHT31;54603;45.638;11.714;2024-02-14T03:14:49;16.39;66.53
67804;SHT31;54603;45.638;11.714;2024-02-14T03:17:15;16.38;66.69
67804;SHT31;54603;45.638;11.714;2024-02-14T03:19:40;16.37;66.53
67804;SHT31;54603;45.638;11.714;2024-02-14T03:22:06;16.37;66.58
67804;SHT31;54603;45.638;11.714;2024-02-14T03:24:34;16.36;66.53
67804;SHT31;54603;45.638;11.714;2024-02-14T03:27:02;16.36;66.37
67804;SHT31;54603;45.638;11.714;2024-02-14T03:29:32;16.34;66.22
67804;SHT31;54603;45.638;11.714;2024-02-14T03:31:59;16.34;66.34
67804;SHT31;54603;45.638;11.714;2024-02-14T03:34:29;16.33;66.30
67804;SHT31;54603;45.638;11.714;2024-02-14T03:36:56;16.32;66.30
67804;SHT31;54603;45.638;11.714;2024-02-14T03:39:22;16.32;66.26
67804;SHT31;54603;45.638;11.714;2024-02-14T03:41:48;16.32;66.30
67804;SHT31;54603;45.638;11.714;2024-02-14T03:44:14;16.30;66.45
67804;SHT31;54603;45.638;11.714;2024-02-14T03:46:39;16.30;66.55
67804;SHT31;54603;45.638;11.714;2024-02-14T03:49:05;16.29;66.77
67804;SHT31;54603;45.638;11.714;2024-02-14T03:51:31;16.28;66.83
67804;SHT31;54603;45.638;11.714;2024-02-14T03:53:58;16.28;66.69
67804;SHT31;54603;45.638;11.714;2024-02-14T03:56:24;16.28;66.78
67804;SHT31;54603;45.638;11.714;2024-02-14T03:58:51;16.27;66.87
67804;SHT31;54603;45.638;11.714;2024-02-14T04:01:17;16.27;66.87
67804;SHT31;54603;45.638;11.714;2024-02-14T04:03:45;16.26;66.76
67804;SHT31;54603;45.638;11.714;2024-02-14T04:06:13;16.25;66.68
67804;SHT31;54603;45.638;11.714;2024-02-14T04:08:39;16.25;66.64
67804;SHT31;54603;45.638;11.714;2024-02-14T04:11:05;16.23;66.43
67804;SHT31;54603;45.638;11.714;2024-02-14T04:13:30;16.23;66.40
67804;SHT31;54603;45.638;11.714;2024-02-14T04:15:56;16.22;66.35
67804;SHT31;54603;45.638;11.714;2024-02-14T04:18:22;16.21;66.42
67804;SHT31;54603;45.638;11.714;2024-02-14T04:20:48;16.21;66.41
67804;SHT31;54603;45.638;11.714;2024-02-14T04:23:13;16.21;66.42
67804;SHT31;54603;45.638;11.714;2024-02-14T04:25:39;16.19;66.33
67804;SHT31;54603;45.638;11.714;2024-02-14T04:28:05;16.18;66.45
67804;SHT31;54603;45.638;11.714;2024-02-14T04:30:31;16.18;66.64
67804;SHT31;54603;45.638;11.714;2024-02-14T04:32:57;16.18;66.58
67804;SHT31;54603;45.638;11.714;2024-02-14T04:35:23;16.16;66.40
67804;SHT31;54603;45.638;11.714;2024-02-14T04:37:49;16.16;66.37
67804;SHT31;54603;45.638;11.714;2024-02-14T04:40:17;16.16;66.31
67804;SHT31;54603;45.638;11.714;2024-02-14T04:42:44;16.15;66.53
67804;SHT31;54603;45.638;11.714;2024-02-14T04:45:10;16.14;66.79
67804;SHT31;54603;45.638;11.714;2024-02-14T04:47:36;16.13;67.00
67804;SHT31;54603;45.638;11.714;2024-02-14T04:50:03;16.13;67.11
67804;SHT31;54603;45.638;11.714;2024-02-14T04:52:30;16.13;66.98
67804;SHT31;54603;45.638;11.714;2024-02-14T04:54:56;16.11;66.86
67804;SHT31;54603;45.638;11.714;2024-02-14T04:57:23;16.11;66.65
67804;SHT31;54603;45.638;11.714;2024-02-14T04:59:49;16.11;66.45
67804;SHT31;54603;45.638;11.714;2024-02-14T05:02:15;16.10;66.59
67804;SHT31;54603;45.638;11.714;2024-02-14T05:04:41;16.10;66.63
67804;SHT31;54603;45.638;11.714;2024-02-14T05:07:06;16.10;66.86
67804;SHT31;54603;45.638;11.714;2024-02-14T05:09:33;16.09;66.92
67804;SHT31;54603;45.638;11.714;2024-02-14T05:11:59;16.09;67.14
67804;SHT31;54603;45.638;11.714;2024-02-14T05:14:33;16.08;67.23
67804;SHT31;54603;45.638;11.714;2024-02-14T05:17:03;16.08;67.20
67804;SHT31;54603;45.638;11.714;2024-02-14T05:19:30;16.07;66.96
67804;SHT31;54603;45.638;11.714;2024-02-14T05:21:58;16.06;66.82
67804;SHT31;54603;45.638;11.714;2024-02-14T05:24:25;16.06;66.80
67804;SHT31;54603;45.638;11.714;2024-02-14T05:26:54;16.05;66.92
67804;SHT31;54603;45.638;11.714;2024-02-14T05:29:21;16.04;66.90
67804;SHT31;54603;45.638;11.714;2024-02-14T05:31:47;16.04;66.72
67804;SHT31;54603;45.638;11.714;2024-02-14T05:34:14;16.03;66.84
67804;SHT31;54603;45.638;11.714;2024-02-14T05:36:42;16.03;66.85
67804;SHT31;54603;45.638;11.714;2024-02-14T05:39:07;16.02;66.87
67804;SHT31;54603;45.638;11.714;2024-02-14T05:41:33;16.01;66.95
67804;SHT31;54603;45.638;11.714;2024-02-14T05:44:01;16.00;67.16
67804;SHT31;54603;45.638;11.714;2024-02-14T05:46:28;16.00;67.10
67804;SHT31;54603;45.638;11.714;2024-02-14T05:48:54;15.98;67.26
67804;SHT31;54603;45.638;11.714;2024-02-14T05:51:22;15.99;67.42
67804;SHT31;54603;45.638;11.714;2024-02-14T05:53:51;15.98;67.49
67804;SHT31;54603;45.638;11.714;2024-02-14T05:56:18;15.97;67.59
67804;SHT31;54603;45.638;11.714;2024-02-14T05:58:45;15.97;67.58
67804;SHT31;54603;45.638;11.714;2024-02-14T06:01:11;15.96;67.51
67804;SHT31;54603;45.638;11.714;2024-02-14T06:03:37;15.96;67.31
67804;SHT31;54603;45.638;11.714;2024-02-14T06:06:03;15.95;67.14
67804;SHT31;54603;45.638;11.714;2024-02-14T06:08:30;15.95;67.11
67804;SHT31;54603;45.638;11.714;2024-02-14T06:10:56;15.95;67.17
67804;SHT31;54603;45.638;11.714;2024-02-14T06:13:22;15.93;67.37
67804;SHT31;54603;45.638;11.714;2024-02-14T06:15:48;15.93;67.51
67804;SHT31;54603;45.638;11.714;2024-02-14T06:18:14;15.93;67.62
67804;SHT31;54603;45.638;11.714;2024-02-14T06:20:41;15.93;67.58
67804;SHT31;54603;45.638;11.714;2024-02-14T06:23:07;15.92;67.42
67804;SHT31;54603;45.638;11.714;2024-02-14T06:25:33;15.91;67.29
67804;SHT31;54603;45.638;11.714;2024-02-14T06:28:00;15.90;67.37
67804;SHT31;54603;45.638;11.714;2024-02-14T06:30:30;15.91;67.35
67804;SHT31;54603;45.638;11.714;2024-02-14T06:32:56;15.90;67.21
67804;SHT31;54603;45.638;11.714;2024-02-14T06:35:26;15.89;67.13
67804;SHT31;54603;45.638;11.714;2024-02-14T06:37:52;15.89;67.10
67804;SHT31;54603;45.638;11.714;2024-02-14T06:40:17;15.88;67.07
67804;SHT31;54603;45.638;11.714;2024-02-14T06:42:43;15.90;67.13
67804;SHT31;54603;45.638;11.714;2024-02-14T06:45:09;15.92;67.21
67804;SHT31;54603;45.638;11.714;2024-02-14T06:47:35;15.93;66.99
67804;SHT31;54603;45.638;11.714;2024-02-14T06:50:01;15.95;66.92
67804;SHT31;54603;45.638;11.714;2024-02-14T06:52:26;15.96;66.92
67804;SHT31;54603;45.638;11.714;2024-02-14T06:54:52;15.97;66.95
67804;SHT31;54603;45.638;11.714;2024-02-14T06:57:18;15.98;67.03
67804;SHT31;54603;45.638;11.714;2024-02-14T06:59:44;16.00;67.00
67804;SHT31;54603;45.638;11.714;2024-02-14T07:02:09;16.02;67.07
67804;SHT31;54603;45.638;11.714;2024-02-14T07:04:35;16.05;67.06
67804;SHT31;54603;45.638;11.714;2024-02-14T07:07:02;16.09;67.14
67804;SHT31;54603;45.638;11.714;2024-02-14T07:09:29;16.16;67.07
67804;SHT31;54603;45.638;11.714;2024-02-14T07:11:54;16.19;67.08
67804;SHT31;54603;45.638;11.714;2024-02-14T07:14:23;16.23;66.94
67804;SHT31;54603;45.638;11.714;2024-02-14T07:16:49;16.34;66.92
67804;SHT31;54603;45.638;11.714;2024-02-14T07:19:16;16.40;66.89
67804;SHT31;54603;45.638;11.714;2024-02-14T07:21:41;16.43;66.85
67804;SHT31;54603;45.638;11.714;2024-02-14T07:24:07;16.50;66.76
67804;SHT31;54603;45.638;11.714;2024-02-14T07:26:33;16.56;66.70
67804;SHT31;54603;45.638;11.714;2024-02-14T07:28:59;16.57;66.65
67804;SHT31;54603;45.638;11.714;2024-02-14T07:31:28;16.59;66.67
67804;SHT31;54603;45.638;11.714;2024-02-14T07:33:59;16.59;66.61
67804;SHT31;54603;45.638;11.714;2024-02-14T07:36:28;16.58;66.61
67804;SHT31;54603;45.638;11.714;2024-02-14T07:38:55;16.59;66.64
67804;SHT31;54603;45.638;11.714;2024-02-14T07:41:21;16.60;66.67
67804;SHT31;54603;45.638;11.714;2024-02-14T07:43:48;16.65;66.61
67804;SHT31;54603;45.638;11.714;2024-02-14T07:46:20;16.73;66.59
67804;SHT31;54603;45.638;11.714;2024-02-14T07:48:47;16.83;66.50
67804;SHT31;54603;45.638;11.714;2024-02-14T07:51:13;17.04;66.24
67804;SHT31;54603;45.638;11.714;2024-02-14T07:53:40;17.32;65.82
67804;SHT31;54603;45.638;11.714;2024-02-14T07:56:05;17.69;65.26
67804;SHT31;54603;45.638;11.714;2024-02-14T07:58:32;18.10;64.64
67804;SHT31;54603;45.638;11.714;2024-02-14T08:00:57;18.54;63.92
67804;SHT31;54603;45.638;11.714;2024-02-14T08:03:24;18.85;63.38
67804;SHT31;54603;45.638;11.714;2024-02-14T08:05:49;19.11;62.79
67804;SHT31;54603;45.638;11.714;2024-02-14T08:08:16;19.43;62.21
67804;SHT31;54603;45.638;11.714;2024-02-14T08:10:42;19.76;61.57
67804;SHT31;54603;45.638;11.714;2024-02-14T08:13:07;20.03;60.97
67804;SHT31;54603;45.638;11.714;2024-02-14T08:15:33;20.20;60.59
67804;SHT31;54603;45.638;11.714;2024-02-14T08:17:59;20.46;60.03
67804;SHT31;54603;45.638;11.714;2024-02-14T08:20:25;20.71;59.52
67804;SHT31;54603;45.638;11.714;2024-02-14T08:22:51;20.90;59.01
67804;SHT31;54603;45.638;11.714;2024-02-14T08:25:17;20.98;58.81
67804;SHT31;54603;45.638;11.714;2024-02-14T08:27:43;21.05;58.59
67804;SHT31;54603;45.638;11.714;2024-02-14T08:30:08;21.24;58.10
67804;SHT31;54603;45.638;11.714;2024-02-14T08:32:37;21.45;57.62
67804;SHT31;54603;45.638;11.714;2024-02-14T08:35:03;21.49;57.36
67804;SHT31;54603;45.638;11.714;2024-02-14T08:37:29;21.57;57.06
67804;SHT31;54603;45.638;11.714;2024-02-14T08:39:56;21.69;56.69
67804;SHT31;54603;45.638;11.714;2024-02-14T08:42:22;21.75;56.45
67804;SHT31;54603;45.638;11.714;2024-02-14T08:44:48;21.73;56.44
67804;SHT31;54603;45.638;11.714;2024-02-14T08:47:13;21.73;56.46
67804;SHT31;54603;45.638;11.714;2024-02-14T08:49:42;21.91;56.06
67804;SHT31;54603;45.638;11.714;2024-02-14T08:52:08;22.07;55.71
67804;SHT31;54603;45.638;11.714;2024-02-14T08:54:34;22.21;55.45
67804;SHT31;54603;45.638;11.714;2024-02-14T08:57:00;22.34;55.22
67804;SHT31;54603;45.638;11.714;2024-02-14T08:59:25;22.44;54.96
67804;SHT31;54603;45.638;11.714;2024-02-14T09:01:51;22.53;54.75
67804;SHT31;54603;45.638;11.714;2024-02-14T09:04:17;22.59;54.58
67804;SHT31;54603;45.638;11.714;2024-02-14T09:06:43;22.67;54.34
67804;SHT31;54603;45.638;11.714;2024-02-14T09:09:09;22.74;54.11
67804;SHT31;54603;45.638;11.714;2024-02-14T09:11:35;22.84;53.93
67804;SHT31;54603;45.638;11.714;2024-02-14T09:14:02;22.90;53.70
67804;SHT31;54603;45.638;11.714;2024-02-14T09:16:32;22.94;53.50
67804;SHT31;54603;45.638;11.714;2024-02-14T09:18:59;22.94;53.42
67804;SHT31;54603;45.638;11.714;2024-02-14T09:21:35;22.65;53.68
67804;SHT31;54603;45.638;11.714;2024-02-14T09:24:01;22.29;54.10
67804;SHT31;54603;45.638;11.714;2024-02-14T09:26:28;21.97;54.47
67804;SHT31;54603;45.638;11.714;2024-02-14T09:28:55;21.69;54.93
67804;SHT31;54603;45.638;11.714;2024-02-14T09:31:23;21.43;55.31
67804;SHT31;54603;45.638;11.714;2024-02-14T09:33:49;21.22;55.67
67804;SHT31;54603;45.638;11.714;2024-02-14T09:36:16;21.03;56.05
67804;SHT31;54603;45.638;11.714;2024-02-14T09:38:44;20.87;56.37
67804;SHT31;54603;45.638;11.714;2024-02-14T09:41:21;20.73;56.69
67804;SHT31;54603;45.638;11.714;2024-02-14T09:44:18;20.56;57.08
67804;SHT31;54603;45.638;11.714;2024-02-14T09:46:46;20.53;57.57
67804;SHT31;54603;45.638;11.714;2024-02-14T09:49:13;20.49;57.44
67804;SHT31;54603;45.638;11.714;2024-02-14T09:51:48;20.36;57.71
67804;SHT31;54603;45.638;11.714;2024-02-14T09:54:14;20.24;57.98
67804;SHT31;54603;45.638;11.714;2024-02-14T09:56:52;20.15;58.22
67804;SHT31;54603;45.638;11.714;2024-02-14T09:59:22;20.08;58.46
67804;SHT31;54603;45.638;11.714;2024-02-14T10:02:10;19.99;58.70
67804;SHT31;54603;45.638;11.714;2024-02-14T10:04:36;19.94;58.88
67804;SHT31;54603;45.638;11.714;2024-02-14T10:07:06;19.89;59.07
67804;SHT31;54603;45.638;11.714;2024-02-14T10:09:40;19.85;59.23
67804;SHT31;54603;45.638;11.714;2024-02-14T10:12:09;19.80;59.37
67804;SHT31;54603;45.638;11.714;2024-02-14T10:14:36;19.78;59.49
67804;SHT31;54603;45.638;11.714;2024-02-14T10:17:03;19.75;59.63
67804;SHT31;54603;45.638;11.714;2024-02-14T10:19:29;19.73;59.74
67804;SHT31;54603;45.638;11.714;2024-02-14T10:21:56;19.71;59.87
67804;SHT31;54603;45.638;11.714;2024-02-14T10:24:26;19.68;59.97
67804;SHT31;54603;45.638;11.714;2024-02-14T10:26:55;19.66;60.06
67804;SHT31;54603;45.638;11.714;2024-02-14T10:29:23;19.64;60.16
67804;SHT31;54603;45.638;11.714;2024-02-14T10:31:53;19.61;60.27
67804;SHT31;54603;45.638;11.714;2024-02-14T10:34:19;19.60;60.35
67804;SHT31;54603;45.638;11.714;2024-02-14T10:36:52;19.58;60.40
67804;SHT31;54603;45.638;11.714;2024-02-14T10:39:27;19.54;60.46
67804;SHT31;54603;45.638;11.714;2024-02-14T10:41:57;19.53;60.54
67804;SHT31;54603;45.638;11.714;2024-02-14T10:44:25;19.51;60.61
67804;SHT31;54603;45.638;11.714;2024-02-14T10:46:52;19.48;60.60
67804;SHT31;54603;45.638;11.714;2024-02-14T10:49:22;19.46;60.68
67804;SHT31;54603;45.638;11.714;2024-02-14T10:51:54;19.45;60.76
67804;SHT31;54603;45.638;11.714;2024-02-14T10:54:22;19.43;60.80
67804;SHT31;54603;45.638;11.714;2024-02-14T10:57:03;19.40;60.88
67804;SHT31;54603;45.638;11.714;2024-02-14T10:59:38;19.39;60.95
67804;SHT31;54603;45.638;11.714;2024-02-14T11:02:10;19.37;60.99
67804;SHT31;54603;45.638;11.714;2024-02-14T11:04:37;19.35;61.01
67804;SHT31;54603;45.638;11.714;2024-02-14T11:07:08;19.33;61.00
67804;SHT31;54603;45.638;11.714;2024-02-14T11:09:36;19.33;60.92
67804;SHT31;54603;45.638;11.714;2024-02-14T11:12:07;19.32;60.94
67804;SHT31;54603;45.638;11.714;2024-02-14T11:14:34;19.32;60.89
67804;SHT31;54603;45.638;11.714;2024-02-14T11:17:04;19.30;60.86
67804;SHT31;54603;45.638;11.714;2024-02-14T11:19:35;19.28;60.92
67804;SHT31;54603;45.638;11.714;2024-02-14T11:22:18;19.26;60.93
67804;SHT31;54603;45.638;11.714;2024-02-14T11:24:49;19.24;60.99
67804;SHT31;54603;45.638;11.714;2024-02-14T11:27:20;19.24;61.00
67804;SHT31;54603;45.638;11.714;2024-02-14T11:29:59;19.22;61.04
67804;SHT31;54603;45.638;11.714;2024-02-14T11:32:33;19.21;61.05
67804;SHT31;54603;45.638;11.714;2024-02-14T11:35:11;19.19;61.10
67804;SHT31;54603;45.638;11.714;2024-02-14T11:37:38;19.17;61.11
67804;SHT31;54603;45.638;11.714;2024-02-14T11:40:07;19.15;61.11
67804;SHT31;54603;45.638;11.714;2024-02-14T11:42:34;19.13;61.09
67804;SHT31;54603;45.638;11.714;2024-02-14T11:45:02;19.13;61.08
67804;SHT31;54603;45.638;11.714;2024-02-14T11:47:28;19.11;61.08
67804;SHT31;54603;45.638;11.714;2024-02-14T11:49:55;19.09;61.20
67804;SHT31;54603;45.638;11.714;2024-02-14T11:52:24;19.09;61.30
67804;SHT31;54603;45.638;11.714;2024-02-14T11:54:49;19.08;61.35
67804;SHT31;54603;45.638;11.714;2024-02-14T11:57:16;19.07;61.44
67804;SHT31;54603;45.638;11.714;2024-02-14T11:59:44;19.04;61.49
67804;SHT31;54603;45.638;11.714;2024-02-14T12:02:13;19.02;61.50
67804;SHT31;54603;45.638;11.714;2024-02-14T12:04:40;19.01;61.58
67804;SHT31;54603;45.638;11.714;2024-02-14T12:07:12;19.00;61.67
67804;SHT31;54603;45.638;11.714;2024-02-14T12:09:49;18.99;61.70
67804;SHT31;54603;45.638;11.714;2024-02-14T12:12:23;18.97;61.81
67804;SHT31;54603;45.638;11.714;2024-02-14T12:15:05;18.94;61.89
67804;SHT31;54603;45.638;11.714;2024-02-14T12:17:41;18.94;61.93
67804;SHT31;54603;45.638;11.714;2024-02-14T12:20:08;18.92;62.02
67804;SHT31;54603;45.638;11.714;2024-02-14T12:22:39;18.90;62.08
67804;SHT31;54603;45.638;11.714;2024-02-14T12:25:10;18.89;62.14
67804;SHT31;54603;45.638;11.714;2024-02-14T12:27:39;18.87;62.19
67804;SHT31;54603;45.638;11.714;2024-02-14T12:30:09;18.85;62.23
67804;SHT31;54603;45.638;11.714;2024-02-14T12:32:38;18.83;62.27
67804;SHT31;54603;45.638;11.714;2024-02-14T12:35:06;18.82;62.28
67804;SHT31;54603;45.638;11.714;2024-02-14T12:37:33;18.79;62.35
67804;SHT31;54603;45.638;11.714;2024-02-14T12:40:04;18.76;62.46
67804;SHT31;54603;45.638;11.714;2024-02-14T12:42:32;18.74;62.57
67804;SHT31;54603;45.638;11.714;2024-02-14T12:45:00;18.71;62.70
67804;SHT31;54603;45.638;11.714;2024-02-14T12:47:36;18.69;62.75
67804;SHT31;54603;45.638;11.714;2024-02-14T12:50:05;18.69;62.84
67804;SHT31;54603;45.638;11.714;2024-02-14T12:52:40;18.67;62.93
67804;SHT31;54603;45.638;11.714;2024-02-14T12:55:18;18.65;63.00
67804;SHT31;54603;45.638;11.714;2024-02-14T12:57:53;18.64;63.00
67804;SHT31;54603;45.638;11.714;2024-02-14T13:00:19;18.63;63.14
67804;SHT31;54603;45.638;11.714;2024-02-14T13:02:47;18.60;63.21
67804;SHT31;54603;45.638;11.714;2024-02-14T13:05:17;18.59;63.22
67804;SHT31;54603;45.638;11.714;2024-02-14T13:07:51;18.58;63.26
67804;SHT31;54603;45.638;11.714;2024-02-14T13:10:19;18.57;63.36
67804;SHT31;54603;45.638;11.714;2024-02-14T13:12:46;18.55;63.43
67804;SHT31;54603;45.638;11.714;2024-02-14T13:15:12;18.54;63.49
67804;SHT31;54603;45.638;11.714;2024-02-14T13:17:39;18.53;63.54
67804;SHT31;54603;45.638;11.714;2024-02-14T13:20:06;18.51;63.59
67804;SHT31;54603;45.638;11.714;2024-02-14T13:22:34;18.50;63.61
67804;SHT31;54603;45.638;11.714;2024-02-14T13:25:02;18.49;63.66
67804;SHT31;54603;45.638;11.714;2024-02-14T13:27:30;18.48;63.68
67804;SHT31;54603;45.638;11.714;2024-02-14T13:29:56;18.46;63.70
67804;SHT31;54603;45.638;11.714;2024-02-14T13:32:23;18.45;63.48
67804;SHT31;54603;45.638;11.714;2024-02-14T13:34:49;18.44;63.62
67804;SHT31;54603;45.638;11.714;2024-02-14T13:37:16;18.42;63.68
67804;SHT31;54603;45.638;11.714;2024-02-14T13:39:43;18.41;63.78
67804;SHT31;54603;45.638;11.714;2024-02-14T13:42:10;18.41;63.82
67804;SHT31;54603;45.638;11.714;2024-02-14T13:44:36;18.39;63.89
67804;SHT31;54603;45.638;11.714;2024-02-14T13:47:03;18.39;63.91
67804;SHT31;54603;45.638;11.714;2024-02-14T13:49:30;18.37;63.98
67804;SHT31;54603;45.638;11.714;2024-02-14T13:51:57;18.36;63.99
67804;SHT31;54603;45.638;11.714;2024-02-14T13:54:26;18.35;64.04
67804;SHT31;54603;45.638;11.714;2024-02-14T13:56:58;18.34;63.98
67804;SHT31;54603;45.638;11.714;2024-02-14T13:59:23;18.33;64.06
67804;SHT31;54603;45.638;11.714;2024-02-14T14:01:49;18.33;64.08
67804;SHT31;54603;45.638;11.714;2024-02-14T14:04:15;18.31;64.04
67804;SHT31;54603;45.638;11.714;2024-02-14T14:07:08;18.30;64.00
67804;SHT31;54603;45.638;11.714;2024-02-14T14:09:36;18.29;64.06
67804;SHT31;54603;45.638;11.714;2024-02-14T14:12:26;18.29;63.90
67804;SHT31;54603;45.638;11.714;2024-02-14T14:14:54;18.29;63.65
67804;SHT31;54603;45.638;11.714;2024-02-14T14:17:22;18.29;63.79
67804;SHT31;54603;45.638;11.714;2024-02-14T14:19:52;18.30;63.94
67804;SHT31;54603;45.638;11.714;2024-02-14T14:22:20;18.30;63.94
67804;SHT31;54603;45.638;11.714;2024-02-14T14:24:47;18.28;63.97
67804;SHT31;54603;45.638;11.714;2024-02-14T14:27:14;18.29;63.97
67804;SHT31;54603;45.638;11.714;2024-02-14T14:29:46;18.28;64.09
67804;SHT31;54603;45.638;11.714;2024-02-14T14:32:14;18.29;63.96
67804;SHT31;54603;45.638;11.714;2024-02-14T14:34:42;18.26;63.75
67804;SHT31;54603;45.638;11.714;2024-02-14T14:37:09;18.25;63.87
67804;SHT31;54603;45.638;11.714;2024-02-14T14:39:35;18.25;63.84
67804;SHT31;54603;45.638;11.714;2024-02-14T14:42:01;18.23;63.76
67804;SHT31;54603;45.638;11.714;2024-02-14T14:44:31;18.23;63.77
67804;SHT31;54603;45.638;11.714;2024-02-14T14:47:12;18.22;63.85
67804;SHT31;54603;45.638;11.714;2024-02-14T14:49:38;18.22;64.03
67804;SHT31;54603;45.638;11.714;2024-02-14T14:52:04;18.21;64.09
67804;SHT31;54603;45.638;11.714;2024-02-14T14:54:30;18.20;64.19
67804;SHT31;54603;45.638;11.714;2024-02-14T14:56:56;18.20;64.19
67804;SHT31;54603;45.638;11.714;2024-02-14T14:59:21;18.19;64.37
67804;SHT31;54603;45.638;11.714;2024-02-14T15:01:48;18.18;64.54
67804;SHT31;54603;45.638;11.714;2024-02-14T15:04:15;18.18;64.58
67804;SHT31;54603;45.638;11.714;2024-02-14T15:06:41;18.17;64.64
67804;SHT31;54603;45.638;11.714;2024-02-14T15:09:08;18.16;64.63
67804;SHT31;54603;45.638;11.714;2024-02-14T15:11:34;18.15;64.71
67804;SHT31;54603;45.638;11.714;2024-02-14T15:14:00;18.14;64.79
67804;SHT31;54603;45.638;11.714;2024-02-14T15:16:25;18.14;64.67
67804;SHT31;54603;45.638;11.714;2024-02-14T15:18:53;18.12;64.61